sensor_id;sensor_type;location;lat;lon;timestamp;P1;durP1;ratioP1;P2;durP2;ratioP2
78555;SDS011;67851;51.354;7.744;2024-02-14T00:02:06;10.15;;;4.57;;
78555;SDS011;67851;51.354;7.744;2024-02-14T00:04:33;10.25;;;4.10;;
78555;SDS011;67851;51.354;7.744;2024-02-14T00:06:59;8.88;;;3.97;;
78555;SDS011;67851;51.354;7.744;2024-02-14T00:09:26;10.77;;;4.65;;
78555;SDS011;67851;51.354;7.744;2024-02-14T00:11:53;8.90;;;3.88;;
78555;SDS011;67851;51.354;7.744;2024-02-14T00:14:20;8.57;;;4.35;;
78555;SDS011;67851;51.354;7.744;2024-02-14T00:16:47;9.82;;;4.80;;
78555;SDS011;67851;51.354;7.744;2024-02-14T00:19:13;7.13;;;3.63;;
78555;SDS011;67851;51.354;7.744;2024-02-14T00:21:41;11.95;;;4.78;;
78555;SDS011;67851;51.354;7.744;2024-02-14T00:24:08;16.02;;;4.80;;
78555;SDS011;67851;51.354;7.744;2024-02-14T00:26:35;10.93;;;4.15;;
78555;SDS011;67851;51.354;7.744;2024-02-14T00:29:03;7.57;;;4.28;;
78555;SDS011;67851;51.354;7.744;2024-02-14T00:31:30;8.32;;;3.15;;
78555;SDS011;67851;51.354;7.744;2024-02-14T00:33:57;7.82;;;4.60;;
78555;SDS011;67851;51.354;7.744;2024-02-14T00:36:24;8.15;;;4.22;;
78555;SDS011;67851;51.354;7.744;2024-02-14T00:38:52;11.40;;;3.85;;
78555;SDS011;67851;51.354;7.744;2024-02-14T00:41:20;13.57;;;4.53;;
78555;SDS011;67851;51.354;7.744;2024-02-14T00:43:47;8.20;;;3.50;;
78555;SDS011;67851;51.354;7.744;2024-02-14T00:46:16;8.90;;;3.88;;
78555;SDS011;67851;51.354;7.744;2024-02-14T00:48:44;10.35;;;4.18;;
78555;SDS011;67851;51.354;7.744;2024-02-14T00:51:11;9.50;;;3.38;;
78555;SDS011;67851;51.354;7.744;2024-02-14T00:53:38;9.65;;;4.00;;
78555;SDS011;67851;51.354;7.744;2024-02-14T00:56:05;6.63;;;3.20;;
78555;SDS011;67851;51.354;7.744;2024-02-14T00:58:33;10.10;;;3.25;;
78555;SDS011;67851;51.354;7.744;2024-02-14T01:01:00;8.77;;;3.63;;
78555;SDS011;67851;51.354;7.744;2024-02-14T01:03:27;10.93;;;2.95;;
78555;SDS011;67851;51.354;7.744;2024-02-14T01:05:54;7.15;;;2.92;;
78555;SDS011;67851;51.354;7.744;2024-02-14T01:08:21;13.13;;;3.35;;
78555;SDS011;67851;51.354;7.744;2024-02-14T01:10:48;5.88;;;3.22;;
78555;SDS011;67851;51.354;7.744;2024-02-14T01:13:18;6.38;;;3.08;;
78555;SDS011;67851;51.354;7.744;2024-02-14T01:15:45;6.35;;;2.55;;
78555;SDS011;67851;51.354;7.744;2024-02-14T01:18:12;9.10;;;3.13;;
78555;SDS011;67851;51.354;7.744;2024-02-14T01:20:39;10.60;;;4.05;;
78555;SDS011;67851;51.354;7.744;2024-02-14T01:23:05;6.88;;;2.70;;
78555;SDS011;67851;51.354;7.744;2024-02-14T01:25:32;11.30;;;4.38;;
78555;SDS011;67851;51.354;7.744;2024-02-14T01:28:01;5.60;;;2.88;;
78555;SDS011;67851;51.354;7.744;2024-02-14T01:30:27;6.63;;;3.13;;
78555;SDS011;67851;51.354;7.744;2024-02-14T01:32:54;8.48;;;3.55;;
78555;SDS011;67851;51.354;7.744;2024-02-14T01:35:21;6.60;;;3.10;;
78555;SDS011;67851;51.354;7.744;2024-02-14T01:37:48;5.13;;;2.97;;
78555;SDS011;67851;51.354;7.744;2024-02-14T01:40:15;7.35;;;2.88;;
78555;SDS011;67851;51.354;7.744;2024-02-14T01:42:44;9.88;;;3.58;;
78555;SDS011;67851;51.354;7.744;2024-02-14T01:45:11;10.88;;;3.45;;
78555;SDS011;67851;51.354;7.744;2024-02-14T01:47:40;12.45;;;3.75;;
78555;SDS011;67851;51.354;7.744;2024-02-14T01:50:08;8.27;;;2.67;;
78555;SDS011;67851;51.354;7.744;2024-02-14T01:52:35;8.88;;;3.30;;
78555;SDS011;67851;51.354;7.744;2024-02-14T01:55:05;12.30;;;3.97;;
78555;SDS011;67851;51.354;7.744;2024-02-14T01:57:36;6.32;;;2.85;;
78555;SDS011;67851;51.354;7.744;2024-02-14T02:00:06;4.32;;;2.50;;
78555;SDS011;67851;51.354;7.744;2024-02-14T02:02:42;13.27;;;3.30;;
78555;SDS011;67851;51.354;7.744;2024-02-14T02:05:16;8.63;;;2.63;;
78555;SDS011;67851;51.354;7.744;2024-02-14T02:07:43;5.82;;;3.30;;
78555;SDS011;67851;51.354;7.744;2024-02-14T02:10:10;6.78;;;3.10;;
78555;SDS011;67851;51.354;7.744;2024-02-14T02:12:38;7.32;;;3.20;;
78555;SDS011;67851;51.354;7.744;2024-02-14T02:15:05;5.68;;;3.03;;
78555;SDS011;67851;51.354;7.744;2024-02-14T02:17:33;6.65;;;3.30;;
78555;SDS011;67851;51.354;7.744;2024-02-14T02:20:01;6.85;;;3.20;;
78555;SDS011;67851;51.354;7.744;2024-02-14T02:22:29;9.32;;;3.50;;
78555;SDS011;67851;51.354;7.744;2024-02-14T02:24:59;9.48;;;3.30;;
78555;SDS011;67851;51.354;7.744;2024-02-14T02:27:25;8.50;;;3.20;;
78555;SDS011;67851;51.354;7.744;2024-02-14T02:29:52;8.32;;;3.20;;
78555;SDS011;67851;51.354;7.744;2024-02-14T02:32:19;6.18;;;2.85;;
78555;SDS011;67851;51.354;7.744;2024-02-14T02:34:46;10.07;;;3.17;;
78555;SDS011;67851;51.354;7.744;2024-02-14T02:37:13;8.88;;;3.47;;
78555;SDS011;67851;51.354;7.744;2024-02-14T02:39:39;8.45;;;3.25;;
78555;SDS011;67851;51.354;7.744;2024-02-14T02:42:06;5.10;;;3.15;;
78555;SDS011;67851;51.354;7.744;2024-02-14T02:44:33;4.05;;;2.92;;
78555;SDS011;67851;51.354;7.744;2024-02-14T02:47:00;5.40;;;3.20;;
78555;SDS011;67851;51.354;7.744;2024-02-14T02:49:27;7.53;;;3.38;;
78555;SDS011;67851;51.354;7.744;2024-02-14T02:51:55;6.85;;;2.95;;
78555;SDS011;67851;51.354;7.744;2024-02-14T02:54:22;4.90;;;2.63;;
78555;SDS011;67851;51.354;7.744;2024-02-14T02:56:51;7.45;;;3.45;;
78555;SDS011;67851;51.354;7.744;2024-02-14T02:59:18;5.85;;;3.30;;
78555;SDS011;67851;51.354;7.744;2024-02-14T03:01:45;8.90;;;3.30;;
78555;SDS011;67851;51.354;7.744;2024-02-14T03:04:12;6.15;;;2.80;;
78555;SDS011;67851;51.354;7.744;2024-02-14T03:06:41;9.85;;;3.42;;
78555;SDS011;67851;51.354;7.744;2024-02-14T03:09:09;6.60;;;3.33;;
78555;SDS011;67851;51.354;7.744;2024-02-14T03:11:37;7.18;;;3.15;;
78555;SDS011;67851;51.354;7.744;2024-02-14T03:14:04;5.18;;;3.05;;
78555;SDS011;67851;51.354;7.744;2024-02-14T03:16:32;6.38;;;3.00;;
78555;SDS011;67851;51.354;7.744;2024-02-14T03:18:59;9.77;;;2.65;;
78555;SDS011;67851;51.354;7.744;2024-02-14T03:21:27;5.30;;;2.90;;
78555;SDS011;67851;51.354;7.744;2024-02-14T03:23:54;4.10;;;3.08;;
78555;SDS011;67851;51.354;7.744;2024-02-14T03:26:23;5.30;;;3.00;;
78555;SDS011;67851;51.354;7.744;2024-02-14T03:28:50;4.30;;;2.85;;
78555;SDS011;67851;51.354;7.744;2024-02-14T03:31:20;4.22;;;2.97;;
78555;SDS011;67851;51.354;7.744;2024-02-14T03:33:48;7.00;;;2.80;;
78555;SDS011;67851;51.354;7.744;2024-02-14T03:36:15;8.48;;;2.80;;
78555;SDS011;67851;51.354;7.744;2024-02-14T03:38:42;5.97;;;2.78;;
78555;SDS011;67851;51.354;7.744;2024-02-14T03:41:09;3.83;;;3.22;;
78555;SDS011;67851;51.354;7.744;2024-02-14T03:43:36;4.30;;;2.85;;
78555;SDS011;67851;51.354;7.744;2024-02-14T03:46:06;4.13;;;2.80;;
78555;SDS011;67851;51.354;7.744;2024-02-14T03:48:33;5.13;;;3.00;;
78555;SDS011;67851;51.354;7.744;2024-02-14T03:51:00;6.07;;;3.03;;
78555;SDS011;67851;51.354;7.744;2024-02-14T03:53:29;5.07;;;2.50;;
78555;SDS011;67851;51.354;7.744;2024-02-14T03:56:00;6.22;;;2.67;;
78555;SDS011;67851;51.354;7.744;2024-02-14T03:58:28;5.50;;;3.13;;
78555;SDS011;67851;51.354;7.744;2024-02-14T04:00:55;5.63;;;3.10;;
78555;SDS011;67851;51.354;7.744;2024-02-14T04:03:22;6.00;;;3.10;;
78555;SDS011;67851;51.354;7.744;2024-02-14T04:05:50;3.80;;;2.67;;
78555;SDS011;67851;51.354;7.744;2024-02-14T04:08:17;3.85;;;2.72;;
78555;SDS011;67851;51.354;7.744;2024-02-14T04:10:44;7.43;;;3.20;;
78555;SDS011;67851;51.354;7.744;2024-02-14T04:13:11;8.05;;;3.15;;
78555;SDS011;67851;51.354;7.744;2024-02-14T04:15:39;4.78;;;2.85;;
78555;SDS011;67851;51.354;7.744;2024-02-14T04:18:05;5.47;;;2.95;;
78555;SDS011;67851;51.354;7.744;2024-02-14T04:20:33;5.10;;;3.20;;
78555;SDS011;67851;51.354;7.744;2024-02-14T04:23:00;7.32;;;3.20;;
78555;SDS011;67851;51.354;7.744;2024-02-14T04:25:27;7.43;;;3.47;;
78555;SDS011;67851;51.354;7.744;2024-02-14T04:27:54;6.88;;;3.30;;
78555;SDS011;67851;51.354;7.744;2024-02-14T04:30:21;6.00;;;3.65;;
78555;SDS011;67851;51.354;7.744;2024-02-14T04:32:47;3.63;;;3.22;;
78555;SDS011;67851;51.354;7.744;2024-02-14T04:35:15;5.13;;;3.50;;
78555;SDS011;67851;51.354;7.744;2024-02-14T04:37:42;8.30;;;3.88;;
78555;SDS011;67851;51.354;7.744;2024-02-14T04:40:12;7.00;;;3.42;;
78555;SDS011;67851;51.354;7.744;2024-02-14T04:42:40;6.47;;;3.67;;
78555;SDS011;67851;51.354;7.744;2024-02-14T04:45:10;7.75;;;3.38;;
78555;SDS011;67851;51.354;7.744;2024-02-14T04:47:37;8.50;;;3.83;;
78555;SDS011;67851;51.354;7.744;2024-02-14T04:50:04;5.57;;;4.07;;
78555;SDS011;67851;51.354;7.744;2024-02-14T04:52:31;7.25;;;3.83;;
78555;SDS011;67851;51.354;7.744;2024-02-14T04:54:58;5.85;;;3.75;;
78555;SDS011;67851;51.354;7.744;2024-02-14T04:57:28;4.60;;;3.30;;
78555;SDS011;67851;51.354;7.744;2024-02-14T04:59:55;7.05;;;3.78;;
78555;SDS011;67851;51.354;7.744;2024-02-14T05:02:23;7.00;;;3.92;;
78555;SDS011;67851;51.354;7.744;2024-02-14T05:04:50;6.38;;;4.40;;
78555;SDS011;67851;51.354;7.744;2024-02-14T05:07:16;5.93;;;3.38;;
78555;SDS011;67851;51.354;7.744;2024-02-14T05:09:43;4.22;;;3.35;;
78555;SDS011;67851;51.354;7.744;2024-02-14T05:12:12;7.70;;;4.10;;
78555;SDS011;67851;51.354;7.744;2024-02-14T05:14:39;6.07;;;3.97;;
78555;SDS011;67851;51.354;7.744;2024-02-14T05:17:07;6.70;;;4.00;;
78555;SDS011;67851;51.354;7.744;2024-02-14T05:19:34;7.75;;;3.67;;
78555;SDS011;67851;51.354;7.744;2024-02-14T05:22:01;5.10;;;3.70;;
78555;SDS011;67851;51.354;7.744;2024-02-14T05:24:28;5.70;;;3.90;;
78555;SDS011;67851;51.354;7.744;2024-02-14T05:26:55;6.65;;;4.47;;
78555;SDS011;67851;51.354;7.744;2024-02-14T05:29:22;6.13;;;4.05;;
78555;SDS011;67851;51.354;7.744;2024-02-14T05:31:50;6.18;;;3.50;;
78555;SDS011;67851;51.354;7.744;2024-02-14T05:34:18;5.40;;;4.18;;
78555;SDS011;67851;51.354;7.744;2024-02-14T05:36:46;10.40;;;4.35;;
78555;SDS011;67851;51.354;7.744;2024-02-14T05:39:13;8.90;;;4.35;;
78555;SDS011;67851;51.354;7.744;2024-02-14T05:41:43;5.93;;;3.88;;
78555;SDS011;67851;51.354;7.744;2024-02-14T05:44:10;9.63;;;5.05;;
78555;SDS011;67851;51.354;7.744;2024-02-14T05:46:37;6.53;;;4.80;;
78555;SDS011;67851;51.354;7.744;2024-02-14T05:49:04;7.47;;;5.20;;
78555;SDS011;67851;51.354;7.744;2024-02-14T05:51:33;7.53;;;5.38;;
78555;SDS011;67851;51.354;7.744;2024-02-14T05:54:00;9.07;;;5.68;;
78555;SDS011;67851;51.354;7.744;2024-02-14T05:56:27;7.47;;;5.50;;
78555;SDS011;67851;51.354;7.744;2024-02-14T05:58:55;7.68;;;5.15;;
78555;SDS011;67851;51.354;7.744;2024-02-14T06:01:22;12.95;;;6.05;;
78555;SDS011;67851;51.354;7.744;2024-02-14T06:03:49;9.43;;;6.18;;
78555;SDS011;67851;51.354;7.744;2024-02-14T06:06:16;9.52;;;6.60;;
78555;SDS011;67851;51.354;7.744;2024-02-14T06:08:43;10.40;;;6.53;;
78555;SDS011;67851;51.354;7.744;2024-02-14T06:11:11;10.18;;;6.88;;
78555;SDS011;67851;51.354;7.744;2024-02-14T06:13:40;11.65;;;7.30;;
78555;SDS011;67851;51.354;7.744;2024-02-14T06:16:08;7.30;;;5.15;;
78555;SDS011;67851;51.354;7.744;2024-02-14T06:18:36;13.27;;;8.55;;
78555;SDS011;67851;51.354;7.744;2024-02-14T06:21:02;13.60;;;7.80;;
78555;SDS011;67851;51.354;7.744;2024-02-14T06:23:29;12.73;;;8.40;;
78555;SDS011;67851;51.354;7.744;2024-02-14T06:26:00;12.98;;;7.93;;
78555;SDS011;67851;51.354;7.744;2024-02-14T06:28:27;11.20;;;6.35;;
78555;SDS011;67851;51.354;7.744;2024-02-14T06:30:54;10.23;;;6.88;;
78555;SDS011;67851;51.354;7.744;2024-02-14T06:33:21;7.97;;;6.35;;
78555;SDS011;67851;51.354;7.744;2024-02-14T06:35:48;8.02;;;5.97;;
78555;SDS011;67851;51.354;7.744;2024-02-14T06:38:15;8.13;;;5.97;;
78555;SDS011;67851;51.354;7.744;2024-02-14T06:40:43;7.95;;;4.72;;
78555;SDS011;67851;51.354;7.744;2024-02-14T06:43:10;6.75;;;4.15;;
78555;SDS011;67851;51.354;7.744;2024-02-14T06:45:38;5.45;;;4.28;;
78555;SDS011;67851;51.354;7.744;2024-02-14T06:48:07;6.95;;;4.70;;
78555;SDS011;67851;51.354;7.744;2024-02-14T06:50:34;6.20;;;4.10;;
78555;SDS011;67851;51.354;7.744;2024-02-14T06:53:01;6.45;;;4.95;;
78555;SDS011;67851;51.354;7.744;2024-02-14T06:55:28;7.30;;;4.20;;
78555;SDS011;67851;51.354;7.744;2024-02-14T06:57:58;6.20;;;4.80;;
78555;SDS011;67851;51.354;7.744;2024-02-14T07:00:26;5.75;;;4.28;;
78555;SDS011;67851;51.354;7.744;2024-02-14T07:02:55;5.28;;;4.00;;
78555;SDS011;67851;51.354;7.744;2024-02-14T07:05:22;5.68;;;4.47;;
78555;SDS011;67851;51.354;7.744;2024-02-14T07:07:49;11.10;;;6.20;;
78555;SDS011;67851;51.354;7.744;2024-02-14T07:10:16;8.80;;;5.93;;
78555;SDS011;67851;51.354;7.744;2024-02-14T07:12:43;8.07;;;6.30;;
78555;SDS011;67851;51.354;7.744;2024-02-14T07:15:09;11.45;;;7.35;;
78555;SDS011;67851;51.354;7.744;2024-02-14T07:17:37;11.07;;;6.45;;
78555;SDS011;67851;51.354;7.744;2024-02-14T07:20:09;9.83;;;6.20;;
78555;SDS011;67851;51.354;7.744;2024-02-14T07:22:36;9.75;;;6.75;;
78555;SDS011;67851;51.354;7.744;2024-02-14T07:25:02;9.50;;;6.47;;
78555;SDS011;67851;51.354;7.744;2024-02-14T07:27:31;6.15;;;4.50;;
78555;SDS011;67851;51.354;7.744;2024-02-14T07:29:57;8.23;;;5.88;;
78555;SDS011;67851;51.354;7.744;2024-02-14T07:32:25;9.18;;;5.80;;
78555;SDS011;67851;51.354;7.744;2024-02-14T07:34:54;11.50;;;5.60;;
78555;SDS011;67851;51.354;7.744;2024-02-14T07:37:21;7.90;;;5.90;;
78555;SDS011;67851;51.354;7.744;2024-02-14T07:39:51;7.38;;;5.15;;
78555;SDS011;67851;51.354;7.744;2024-02-14T07:42:20;8.52;;;6.03;;
78555;SDS011;67851;51.354;7.744;2024-02-14T07:44:47;10.45;;;6.35;;
78555;SDS011;67851;51.354;7.744;2024-02-14T07:47:17;10.93;;;5.90;;
78555;SDS011;67851;51.354;7.744;2024-02-14T07:49:44;6.97;;;5.45;;
78555;SDS011;67851;51.354;7.744;2024-02-14T07:52:12;6.53;;;5.03;;
78555;SDS011;67851;51.354;7.744;2024-02-14T07:54:39;6.85;;;5.45;;
78555;SDS011;67851;51.354;7.744;2024-02-14T07:57:05;8.52;;;5.60;;
78555;SDS011;67851;51.354;7.744;2024-02-14T07:59:32;6.70;;;4.68;;
78555;SDS011;67851;51.354;7.744;2024-02-14T08:01:59;6.63;;;5.03;;
78555;SDS011;67851;51.354;7.744;2024-02-14T08:04:26;6.25;;;5.25;;
78555;SDS011;67851;51.354;7.744;2024-02-14T08:06:53;7.78;;;5.80;;
78555;SDS011;67851;51.354;7.744;2024-02-14T08:09:20;7.85;;;5.22;;
78555;SDS011;67851;51.354;7.744;2024-02-14T08:11:46;6.38;;;5.13;;
78555;SDS011;67851;51.354;7.744;2024-02-14T08:14:13;7.03;;;5.82;;
78555;SDS011;67851;51.354;7.744;2024-02-14T08:16:40;8.05;;;5.53;;
78555;SDS011;67851;51.354;7.744;2024-02-14T08:19:45;7.80;;;5.82;;
78555;SDS011;67851;51.354;7.744;2024-02-14T08:22:12;7.47;;;5.68;;
78555;SDS011;67851;51.354;7.744;2024-02-14T08:24:38;6.63;;;4.30;;
78555;SDS011;67851;51.354;7.744;2024-02-14T08:27:08;7.47;;;6.00;;
78555;SDS011;67851;51.354;7.744;2024-02-14T08:29:41;8.85;;;5.88;;
78555;SDS011;67851;51.354;7.744;2024-02-14T08:32:24;6.97;;;5.53;;
78555;SDS011;67851;51.354;7.744;2024-02-14T08:34:52;8.38;;;5.50;;
78555;SDS011;67851;51.354;7.744;2024-02-14T08:37:19;9.98;;;5.07;;
78555;SDS011;67851;51.354;7.744;2024-02-14T08:39:47;7.43;;;4.72;;
78555;SDS011;67851;51.354;7.744;2024-02-14T08:42:15;9.18;;;5.30;;
78555;SDS011;67851;51.354;7.744;2024-02-14T08:44:43;7.20;;;4.82;;
78555;SDS011;67851;51.354;7.744;2024-02-14T08:47:10;5.78;;;4.50;;
78555;SDS011;67851;51.354;7.744;2024-02-14T08:49:40;5.75;;;4.85;;
78555;SDS011;67851;51.354;7.744;2024-02-14T08:52:07;4.75;;;4.10;;
78555;SDS011;67851;51.354;7.744;2024-02-14T08:54:35;3.83;;;3.30;;
78555;SDS011;67851;51.354;7.744;2024-02-14T08:57:04;5.90;;;3.17;;
78555;SDS011;67851;51.354;7.744;2024-02-14T08:59:31;6.53;;;3.83;;
78555;SDS011;67851;51.354;7.744;2024-02-14T09:01:58;3.95;;;3.45;;
78555;SDS011;67851;51.354;7.744;2024-02-14T09:04:25;5.53;;;3.97;;
78555;SDS011;67851;51.354;7.744;2024-02-14T09:06:53;6.75;;;4.03;;
78555;SDS011;67851;51.354;7.744;2024-02-14T09:09:20;6.93;;;3.50;;
78555;SDS011;67851;51.354;7.744;2024-02-14T09:11:47;5.28;;;3.90;;
78555;SDS011;67851;51.354;7.744;2024-02-14T09:14:17;5.80;;;3.65;;
78555;SDS011;67851;51.354;7.744;2024-02-14T09:16:44;8.30;;;3.92;;
78555;SDS011;67851;51.354;7.744;2024-02-14T09:19:15;5.28;;;4.10;;
78555;SDS011;67851;51.354;7.744;2024-02-14T09:21:45;8.93;;;4.47;;
78555;SDS011;67851;51.354;7.744;2024-02-14T09:24:13;6.72;;;4.28;;
78555;SDS011;67851;51.354;7.744;2024-02-14T09:26:40;7.38;;;5.18;;
78555;SDS011;67851;51.354;7.744;2024-02-14T09:29:06;6.13;;;4.53;;
78555;SDS011;67851;51.354;7.744;2024-02-14T09:35:18;11.95;;;6.40;;
78555;SDS011;67851;51.354;7.744;2024-02-14T09:37:45;7.05;;;5.10;;
78555;SDS011;67851;51.354;7.744;2024-02-14T09:40:15;4.00;;;3.10;;
78555;SDS011;67851;51.354;7.744;2024-02-14T09:42:49;5.03;;;3.53;;
78555;SDS011;67851;51.354;7.744;2024-02-14T09:45:24;4.68;;;3.50;;
78555;SDS011;67851;51.354;7.744;2024-02-14T09:47:52;4.75;;;3.50;;
78555;SDS011;67851;51.354;7.744;2024-02-14T09:50:20;5.07;;;3.13;;
78555;SDS011;67851;51.354;7.744;2024-02-14T09:52:47;7.50;;;3.42;;
78555;SDS011;67851;51.354;7.744;2024-02-14T09:55:18;4.10;;;3.17;;
78555;SDS011;67851;51.354;7.744;2024-02-14T09:57:49;4.07;;;2.88;;
78555;SDS011;67851;51.354;7.744;2024-02-14T10:00:16;4.88;;;3.03;;
78555;SDS011;67851;51.354;7.744;2024-02-14T10:02:46;3.75;;;2.90;;
78555;SDS011;67851;51.354;7.744;2024-02-14T10:05:12;5.75;;;2.67;;
78555;SDS011;67851;51.354;7.744;2024-02-14T10:07:40;3.60;;;2.42;;
78555;SDS011;67851;51.354;7.744;2024-02-14T10:10:10;3.80;;;2.45;;
78555;SDS011;67851;51.354;7.744;2024-02-14T10:12:40;3.05;;;2.47;;
78555;SDS011;67851;51.354;7.744;2024-02-14T10:15:08;3.17;;;2.20;;
78555;SDS011;67851;51.354;7.744;2024-02-14T10:17:35;3.63;;;2.20;;
78555;SDS011;67851;51.354;7.744;2024-02-14T10:20:03;3.42;;;2.03;;
78555;SDS011;67851;51.354;7.744;2024-02-14T10:22:43;3.83;;;2.42;;
78555;SDS011;67851;51.354;7.744;2024-02-14T10:25:10;4.38;;;2.50;;
78555;SDS011;67851;51.354;7.744;2024-02-14T10:27:38;3.13;;;2.40;;
78555;SDS011;67851;51.354;7.744;2024-02-14T10:30:05;4.20;;;2.60;;
78555;SDS011;67851;51.354;7.744;2024-02-14T10:32:40;4.93;;;2.85;;
78555;SDS011;67851;51.354;7.744;2024-02-14T10:35:15;10.13;;;3.25;;
78555;SDS011;67851;51.354;7.744;2024-02-14T10:37:42;8.98;;;2.80;;
78555;SDS011;67851;51.354;7.744;2024-02-14T10:40:10;4.95;;;2.95;;
78555;SDS011;67851;51.354;7.744;2024-02-14T10:42:37;7.18;;;3.15;;
78555;SDS011;67851;51.354;7.744;2024-02-14T10:45:11;4.93;;;2.70;;
78555;SDS011;67851;51.354;7.744;2024-02-14T10:47:42;9.15;;;3.08;;
78555;SDS011;67851;51.354;7.744;2024-02-14T10:50:10;5.47;;;2.63;;
78555;SDS011;67851;51.354;7.744;2024-02-14T10:52:40;6.00;;;3.08;;
78555;SDS011;67851;51.354;7.744;2024-02-14T10:55:09;5.63;;;2.55;;
78555;SDS011;67851;51.354;7.744;2024-02-14T10:57:38;7.38;;;2.60;;
78555;SDS011;67851;51.354;7.744;2024-02-14T11:00:09;9.20;;;3.00;;
78555;SDS011;67851;51.354;7.744;2024-02-14T11:02:38;5.43;;;2.80;;
78555;SDS011;67851;51.354;7.744;2024-02-14T11:05:05;5.22;;;3.03;;
78555;SDS011;67851;51.354;7.744;2024-02-14T11:07:33;6.53;;;2.63;;
78555;SDS011;67851;51.354;7.744;2024-02-14T11:12:36;9.35;;;2.83;;
78555;SDS011;67851;51.354;7.744;2024-02-14T11:15:09;5.50;;;2.72;;
78555;SDS011;67851;51.354;7.744;2024-02-14T11:20:11;4.32;;;2.50;;
78555;SDS011;67851;51.354;7.744;2024-02-14T11:22:52;5.22;;;2.40;;
78555;SDS011;67851;51.354;7.744;2024-02-14T11:25:27;10.07;;;2.67;;
78555;SDS011;67851;51.354;7.744;2024-02-14T11:28:02;8.55;;;2.20;;
78555;SDS011;67851;51.354;7.744;2024-02-14T11:30:42;3.55;;;2.20;;
78555;SDS011;67851;51.354;7.744;2024-02-14T11:33:24;5.38;;;2.05;;
78555;SDS011;67851;51.354;7.744;2024-02-14T11:35:51;2.75;;;1.58;;
78555;SDS011;67851;51.354;7.744;2024-02-14T11:38:22;6.07;;;1.95;;
78555;SDS011;67851;51.354;7.744;2024-02-14T11:40:55;3.15;;;1.67;;
78555;SDS011;67851;51.354;7.744;2024-02-14T11:43:24;2.97;;;1.67;;
78555;SDS011;67851;51.354;7.744;2024-02-14T11:45:51;2.90;;;1.38;;
78555;SDS011;67851;51.354;7.744;2024-02-14T11:48:19;5.13;;;1.70;;
78555;SDS011;67851;51.354;7.744;2024-02-14T11:50:53;7.75;;;1.40;;
78555;SDS011;67851;51.354;7.744;2024-02-14T11:53:20;3.50;;;1.40;;
78555;SDS011;67851;51.354;7.744;2024-02-14T11:55:47;6.28;;;1.42;;
78555;SDS011;67851;51.354;7.744;2024-02-14T11:58:15;6.15;;;1.88;;
78555;SDS011;67851;51.354;7.744;2024-02-14T12:00:43;4.85;;;1.20;;
78555;SDS011;67851;51.354;7.744;2024-02-14T12:03:12;1.63;;;1.10;;
78555;SDS011;67851;51.354;7.744;2024-02-14T12:05:47;2.90;;;1.20;;
78555;SDS011;67851;51.354;7.744;2024-02-14T12:08:18;5.80;;;1.23;;
78555;SDS011;67851;51.354;7.744;2024-02-14T12:11:36;3.42;;;1.75;;
78555;SDS011;67851;51.354;7.744;2024-02-14T12:14:08;3.38;;;1.27;;
78555;SDS011;67851;51.354;7.744;2024-02-14T12:16:36;4.60;;;1.10;;
78555;SDS011;67851;51.354;7.744;2024-02-14T12:19:25;4.70;;;1.35;;
78555;SDS011;67851;51.354;7.744;2024-02-14T12:21:58;3.65;;;1.40;;
78555;SDS011;67851;51.354;7.744;2024-02-14T12:24:28;3.20;;;0.93;;
78555;SDS011;67851;51.354;7.744;2024-02-14T12:26:57;1.30;;;1.00;;
78555;SDS011;67851;51.354;7.744;2024-02-14T12:29:28;6.20;;;1.42;;
78555;SDS011;67851;51.354;7.744;2024-02-14T12:32:28;3.67;;;1.52;;
78555;SDS011;67851;51.354;7.744;2024-02-14T12:34:47;3.10;;;1.38;;
78555;SDS011;67851;51.354;7.744;2024-02-14T12:37:16;3.72;;;1.55;;
78555;SDS011;67851;51.354;7.744;2024-02-14T12:39:43;2.70;;;1.25;;
78555;SDS011;67851;51.354;7.744;2024-02-14T12:42:10;3.92;;;1.80;;
78555;SDS011;67851;51.354;7.744;2024-02-14T12:44:37;6.20;;;1.48;;
78555;SDS011;67851;51.354;7.744;2024-02-14T12:47:06;4.40;;;1.40;;
78555;SDS011;67851;51.354;7.744;2024-02-14T12:49:34;4.28;;;1.75;;
78555;SDS011;67851;51.354;7.744;2024-02-14T12:52:01;3.58;;;1.58;;
78555;SDS011;67851;51.354;7.744;2024-02-14T12:54:31;4.05;;;2.08;;
78555;SDS011;67851;51.354;7.744;2024-02-14T12:56:57;2.63;;;1.40;;
78555;SDS011;67851;51.354;7.744;2024-02-14T12:59:24;7.32;;;1.85;;
78555;SDS011;67851;51.354;7.744;2024-02-14T13:01:51;4.32;;;1.83;;
78555;SDS011;67851;51.354;7.744;2024-02-14T13:04:18;4.13;;;1.95;;
78555;SDS011;67851;51.354;7.744;2024-02-14T13:09:17;4.25;;;2.05;;
78555;SDS011;67851;51.354;7.744;2024-02-14T13:11:44;3.30;;;1.77;;
78555;SDS011;67851;51.354;7.744;2024-02-14T13:14:10;4.97;;;1.90;;
78555;SDS011;67851;51.354;7.744;2024-02-14T13:16:37;5.03;;;1.88;;
78555;SDS011;67851;51.354;7.744;2024-02-14T13:19:05;3.17;;;1.80;;
78555;SDS011;67851;51.354;7.744;2024-02-14T13:21:33;3.38;;;1.83;;
78555;SDS011;67851;51.354;7.744;2024-02-14T13:24:00;3.33;;;1.80;;
78555;SDS011;67851;51.354;7.744;2024-02-14T13:26:27;3.40;;;1.30;;
78555;SDS011;67851;51.354;7.744;2024-02-14T13:28:54;3.10;;;1.73;;
78555;SDS011;67851;51.354;7.744;2024-02-14T13:31:23;7.35;;;1.70;;
78555;SDS011;67851;51.354;7.744;2024-02-14T13:33:53;1.90;;;1.20;;
78555;SDS011;67851;51.354;7.744;2024-02-14T13:36:20;2.95;;;1.40;;
78555;SDS011;67851;51.354;7.744;2024-02-14T13:38:49;3.05;;;1.60;;
78555;SDS011;67851;51.354;7.744;2024-02-14T13:41:17;2.55;;;1.40;;
78555;SDS011;67851;51.354;7.744;2024-02-14T13:43:43;2.40;;;1.27;;
78555;SDS011;67851;51.354;7.744;2024-02-14T13:46:10;4.65;;;1.63;;
78555;SDS011;67851;51.354;7.744;2024-02-14T13:48:37;3.47;;;1.20;;
78555;SDS011;67851;51.354;7.744;2024-02-14T13:51:06;2.90;;;1.30;;
78555;SDS011;67851;51.354;7.744;2024-02-14T13:53:36;3.60;;;1.30;;
78555;SDS011;67851;51.354;7.744;2024-02-14T13:56:04;4.32;;;1.40;;
78555;SDS011;67851;51.354;7.744;2024-02-14T13:58:31;3.42;;;1.20;;
78555;SDS011;67851;51.354;7.744;2024-02-14T14:00:57;2.25;;;1.20;;
78555;SDS011;67851;51.354;7.744;2024-02-14T14:03:26;2.17;;;1.10;;
78555;SDS011;67851;51.354;7.744;2024-02-14T14:05:53;4.20;;;0.90;;
78555;SDS011;67851;51.354;7.744;2024-02-14T14:08:20;3.75;;;1.30;;
78555;SDS011;67851;51.354;7.744;2024-02-14T14:10:49;3.00;;;1.23;;
78555;SDS011;67851;51.354;7.744;2024-02-14T14:13:16;1.42;;;0.98;;
78555;SDS011;67851;51.354;7.744;2024-02-14T14:15:44;2.00;;;1.05;;
78555;SDS011;67851;51.354;7.744;2024-02-14T14:18:11;1.00;;;0.80;;
78555;SDS011;67851;51.354;7.744;2024-02-14T14:20:37;1.33;;;1.00;;
78555;SDS011;67851;51.354;7.744;2024-02-14T14:23:04;1.25;;;0.90;;
78555;SDS011;67851;51.354;7.744;2024-02-14T14:25:32;1.23;;;0.70;;
78555;SDS011;67851;51.354;7.744;2024-02-14T14:28:00;1.20;;;1.10;;
78555;SDS011;67851;51.354;7.744;2024-02-14T14:30:30;2.57;;;1.23;;
78555;SDS011;67851;51.354;7.744;2024-02-14T14:32:57;1.27;;;1.05;;
78555;SDS011;67851;51.354;7.744;2024-02-14T14:35:24;4.60;;;1.40;;
78555;SDS011;67851;51.354;7.744;2024-02-14T14:37:54;1.73;;;1.10;;
78555;SDS011;67851;51.354;7.744;2024-02-14T14:40:22;5.88;;;1.45;;
78555;SDS011;67851;51.354;7.744;2024-02-14T14:42:49;3.65;;;1.52;;
78555;SDS011;67851;51.354;7.744;2024-02-14T14:45:18;1.73;;;1.60;;
78555;SDS011;67851;51.354;7.744;2024-02-14T14:47:47;3.45;;;1.85;;
78555;SDS011;67851;51.354;7.744;2024-02-14T14:50:17;5.40;;;2.90;;
78555;SDS011;67851;51.354;7.744;2024-02-14T14:52:44;4.63;;;2.20;;
78555;SDS011;67851;51.354;7.744;2024-02-14T14:55:12;2.80;;;2.28;;
78555;SDS011;67851;51.354;7.744;2024-02-14T14:57:42;3.97;;;2.90;;
78555;SDS011;67851;51.354;7.744;2024-02-14T15:00:10;3.47;;;2.88;;
78555;SDS011;67851;51.354;7.744;2024-02-14T15:02:40;2.95;;;2.20;;
78555;SDS011;67851;51.354;7.744;2024-02-14T15:05:09;2.85;;;2.55;;